Latest Weather Observations for Horn Island

IDQ60801

Issued at 9:13 pm EST Saturday 9 May 2026 (issued every 10 minutes, with the page automatically refreshed every 10 minutes)

About weather observations | Map of weather stations | Latest weather observations for QLD | Other Formats
Station Details ID: 027058 Name: HORN ISLAND Lat: -10.58 Lon: 142.29 Height: 4.0 m
Data from the previous 72 hours. | See also: Recent months at Horn Island
Date/Time
EST
Temp
°C
App
Temp
°C
Dew
Point
°C
Rel
Hum
%
Delta-T
°C
Wind Press
QNH
hPa
Press
MSL
hPa
Rain since
9am
mm
Dir  Spd
km/h
Gust
km/h
Spd
kts
Gust
kts
09/09:00pm 27.6 27.6 23.8 80 2.6 ESE 30 43 16 23 1010.9 1010.9 0.2
09/08:47pm 27.5 28.0 23.9 81 2.5 ESE 28 46 15 25 1011.0 1011.0 0.2
09/08:30pm 27.6 28.4 24.4 83 2.2 SE 28 43 15 23 1010.8 1010.8 0.2
09/08:00pm 27.6 27.9 24.2 82 2.4 SE 30 41 16 22 1010.2 1010.2 0.2
09/07:30pm 27.6 28.4 24.4 83 2.2 SE 28 37 15 20 1009.7 1009.7 0.2
09/07:16pm 27.7 28.3 24.1 81 2.5 ESE 28 48 15 26 1009.5 1009.5 0.2
09/07:00pm 27.5 28.5 24.1 82 2.4 ESE 26 39 14 21 1009.4 1009.4 0.2
09/06:30pm 27.6 28.9 24.0 81 2.5 ESE 24 35 13 19 1009.1 1009.1 0.2
09/06:00pm 27.9 28.8 23.9 79 2.8 ESE 26 43 14 23 1008.8 1008.8 0.2
09/05:30pm 28.2 28.3 24.0 78 2.9 ESE 30 44 16 24 1008.6 1008.6 0.2
09/05:00pm 28.7 29.0 24.3 77 3.1 ESE 30 41 16 22 1008.4 1008.4 0.2
09/04:30pm 29.1 29.4 24.2 75 3.4 ESE 30 44 16 24 1008.2 1008.2 0.2
09/04:00pm 29.2 29.0 24.3 75 3.4 ESE 33 43 18 23 1008.1 1008.1 0.2
09/03:30pm 29.4 28.4 23.6 71 4.0 ESE 35 48 19 26 1008.1 1008.1 0.2
09/03:00pm 30.1 30.0 24.3 71 4.0 ESE 32 46 17 25 1008.2 1008.2 0.2
09/02:30pm 29.4 29.1 23.8 72 3.9 ESE 32 48 17 26 1008.2 1008.2 0.2
09/02:05pm 29.8 29.7 24.2 72 3.9 ESE 32 50 17 27 1008.4 1008.4 0.2
09/02:00pm 30.0 29.7 24.2 71 4.0 ESE 33 44 18 24 1008.6 1008.6 0.2
09/01:30pm 29.8 29.9 24.9 75 3.4 ESE 33 44 18 24 1008.8 1008.8 0.2
09/01:00pm 29.8 29.9 24.9 75 3.4 ESE 33 46 18 25 1009.1 1009.1 0.2
09/12:30pm 29.9 29.8 24.5 73 3.8 ESE 33 50 18 27 1009.5 1009.5 0.2
09/12:00pm 29.9 30.2 25.2 76 3.3 ESE 33 44 18 24 1010.0 1010.0 0.2
09/11:30am 29.8 29.7 25.1 76 3.3 ESE 35 52 19 28 1010.3 1010.3 0.2
09/11:28am 30.0 29.9 25.1 75 3.4 ESE 35 52 19 28 1010.3 1010.3 0.2
09/11:00am 29.9 30.9 25.9 79 2.8 ESE 32 44 17 24 1010.6 1010.6 0.2
09/10:39am 29.0 30.3 25.2 80 2.7 ESE 28 43 15 23 1010.9 1010.9 0.2
09/10:30am 29.6 30.5 25.8 80 2.7 ESE 32 41 17 22 1011.0 1011.0 0.2
09/10:01am 29.9 31.4 25.6 78 3.0 ESE 28 43 15 23 1010.9 1010.9 0.0
09/10:00am 29.7 31.1 25.4 78 3.0 ESE 28 41 15 22 1010.9 1010.9 0.0
09/09:30am 29.2 30.2 25.4 80 2.7 ESE 30 50 16 27 1010.9 1010.9 0.0
09/09:28am 29.0 29.8 25.0 79 2.8 ESE 30 50 16 27 1010.9 1010.9 0.0
09/09:00am 28.6 29.7 25.0 81 2.5 ESE 28 39 15 21 1010.8 1010.8 0.4
09/08:48am 28.5 29.3 25.1 82 2.4 ESE 30 43 16 23 1010.7 1010.7 0.4
09/08:30am 28.2 29.6 25.4 85 2.0 ESE 28 39 15 21 1010.5 1010.5 0.4
09/08:10am 27.6 29.4 25.4 88 1.5 ESE 26 37 14 20 1010.3 1010.3 0.4
09/08:00am 27.5 29.6 25.3 88 1.5 ESE 24 32 13 17 1010.3 1010.3 0.4
09/07:30am 27.0 29.7 25.6 92 1.0 SE 22 30 12 16 1009.9 1009.9 0.4
09/07:00am 26.9 28.7 24.9 89 1.4 SE 24 35 13 19 1009.6 1009.6 0.4
09/06:30am 26.5 30.0 24.9 91 1.1 SE 15 20 8 11 1009.2 1009.2 0.4
09/06:00am 26.4 29.9 24.8 91 1.1 SSE 15 24 8 13 1009.1 1009.1 0.4
09/05:30am 26.4 29.5 24.8 91 1.1 SE 17 22 9 12 1008.8 1008.8 0.4
09/05:00am 26.1 29.6 24.9 93 0.8 SSE 15 19 8 10 1008.5 1008.5 0.4
09/04:57am 26.1 29.3 24.9 93 0.8 SSE 17 22 9 12 1008.5 1008.5 0.4
09/04:42am 26.4 29.6 25.0 92 1.0 SE 17 28 9 15 1008.5 1008.5 0.4
09/04:35am 26.5 30.0 24.9 91 1.1 SSE 15 20 8 11 1008.4 1008.4 0.0
09/04:30am 26.5 29.7 24.9 91 1.1 SE 17 24 9 13 1008.5 1008.5 0.0
09/04:22am 26.5 29.7 24.9 91 1.1 SE 17 26 9 14 1008.4 1008.4 0.0
09/04:00am 26.5 30.2 25.1 92 1.0 SSE 15 22 8 12 1008.6 1008.6 0.0
09/03:58am 26.5 30.2 25.1 92 1.0 SSE 15 22 8 12 1008.6 1008.6 0.0
09/03:30am 26.5 29.8 25.1 92 1.0 SE 17 22 9 12 1008.7 1008.7 0.0
09/03:07am 26.2 30.3 25.2 94 0.7 SE 13 17 7 9 1008.7 1008.7 0.0
09/03:00am 26.1 30.1 25.1 94 0.7 SE 13 17 7 9 1008.7 1008.7 0.0
09/02:30am 26.2 30.2 25.0 93 0.8 SSE 13 17 7 9 1008.9 1008.9 0.0
09/02:28am 26.1 30.0 24.9 93 0.8 SSE 13 17 7 9 1008.9 1008.9 0.0
09/02:00am 26.0 29.9 24.8 93 0.8 SSE 13 19 7 10 1009.2 1009.2 0.0
09/01:30am 26.0 29.9 24.8 93 0.8 SSE 13 17 7 9 1009.6 1009.6 0.0
09/01:16am 25.9 29.7 24.7 93 0.8 SSE 13 17 7 9 1009.6 1009.6 0.0
09/01:03am 26.0 29.7 24.6 92 1.0 SSE 13 20 7 11 1009.8 1009.8 0.0
09/01:00am 26.0 29.4 24.6 92 1.0 SSE 15 20 8 11 1009.9 1009.9 0.0
09/12:30am 26.0 29.4 24.6 92 1.0 SSE 15 20 8 11 1010.2 1010.2 0.0
09/12:19am 25.9 28.8 24.5 92 1.0 SSE 17 20 9 11 1010.4 1010.4 0.0
09/12:00am 26.1 29.3 24.3 90 1.2 SSE 15 20 8 11 1010.5 1010.5 0.0
 
Date/Time
EST
Temp
°C
App
Temp
°C
Dew
Point
°C
Rel
Hum
%
Delta-T
°C
Wind Press
QNH
hPa
Press
MSL
hPa
Rain since
9am
mm
Dir  Spd
km/h
Gust
km/h
Spd
kts
Gust
kts
08/11:32pm 26.1 29.5 24.1 89 1.4 S 13 20 7 11 1010.7 1010.7 0.0
08/11:30pm 26.1 29.5 24.1 89 1.4 S 13 20 7 11 1010.7 1010.7 0.0
08/11:00pm 26.1 28.8 24.1 89 1.4 SSE 17 26 9 14 1010.7 1010.7 0.0
08/10:30pm 26.7 28.6 23.8 84 2.0 SSE 20 32 11 17 1010.7 1010.7 0.0
08/10:00pm 26.8 29.2 23.7 83 2.1 SSE 17 24 9 13 1010.9 1010.9 0.0
08/09:30pm 26.7 29.5 23.6 83 2.1 SSE 15 20 8 11 1011.1 1011.1 0.0
08/09:00pm 27.0 29.3 23.5 81 2.4 SSE 17 24 9 13 1011.1 1011.1 0.0
08/08:30pm 27.0 29.3 23.5 81 2.4 SSE 17 24 9 13 1010.8 1010.8 0.0
08/08:00pm 27.1 29.7 23.3 80 2.6 SSE 15 24 8 13 1010.4 1010.4 0.0
08/07:30pm 27.0 29.0 23.0 79 2.7 SE 17 24 9 13 1009.9 1009.9 0.0
08/07:00pm 27.3 29.0 23.1 78 2.9 SE 19 26 10 14 1009.5 1009.5 0.0
08/06:30pm 27.3 29.1 23.3 79 2.7 SE 19 28 10 15 1009.0 1009.0 0.0
08/06:00pm 27.7 28.0 22.9 75 3.3 SE 26 43 14 23 1008.7 1008.7 0.0
08/05:30pm 28.2 28.9 23.6 76 3.2 ESE 26 39 14 21 1008.6 1008.6 0.0
08/05:00pm 28.8 29.5 23.7 74 3.5 ESE 26 35 14 19 1008.3 1008.3 0.0
08/04:30pm 28.9 28.4 23.6 73 3.6 ESE 32 43 17 23 1008.2 1008.2 0.0
08/04:00pm 29.6 30.1 24.0 72 3.9 ESE 28 41 15 22 1008.0 1008.0 0.0
08/03:30pm 29.5 29.1 23.0 68 4.4 ESE 30 41 16 22 1008.0 1008.0 0.0
08/03:00pm 29.5 29.6 23.2 69 4.3 ESE 28 39 15 21 1008.2 1008.2 0.0
08/02:30pm 29.9 30.0 23.3 67 4.5 ESE 28 41 15 22 1008.4 1008.4 0.0
08/02:00pm 30.8 31.9 24.4 68 4.5 ESE 26 39 14 21 1008.7 1008.7 0.0
08/01:30pm 30.2 30.4 23.4 67 4.7 E 28 35 15 19 1009.1 1009.1 0.0
08/01:00pm 29.8 29.8 23.0 67 4.7 ESE 28 39 15 21 1009.6 1009.6 0.0
08/12:30pm 29.6 29.6 23.1 68 4.5 ESE 28 35 15 19 1010.0 1010.0 0.0
08/12:00pm 29.7 29.9 23.4 69 4.3 ESE 28 35 15 19 1010.6 1010.6 0.0
08/11:30am 29.4 29.3 22.9 68 4.4 ESE 28 37 15 20 1011.1 1011.1 0.0
08/11:00am 29.9 30.7 23.8 70 4.2 ESE 26 35 14 19 1011.2 1011.2 0.0
08/10:30am 29.6 30.9 24.0 72 3.9 ESE 24 35 13 19 1011.4 1011.4 0.0
08/10:00am 29.4 30.5 24.3 74 3.5 ESE 26 37 14 20 1011.4 1011.4 0.0
08/09:30am 29.5 31.1 23.9 72 3.9 ESE 22 32 12 17 1011.4 1011.4 0.0
08/09:00am 28.8 29.8 23.5 73 3.6 ESE 24 33 13 18 1011.3 1011.3 0.0
08/08:30am 28.0 29.2 23.8 78 2.9 SE 24 32 13 17 1011.0 1011.0 0.0
08/08:00am 26.9 28.9 23.6 82 2.3 SE 19 28 10 15 1010.9 1010.9 0.0
08/07:30am 26.5 28.9 23.6 84 2.0 SE 17 20 9 11 1010.9 1010.9 0.0
08/07:00am 26.3 29.4 23.6 85 1.8 SE 13 20 7 11 1010.8 1010.8 0.0
08/06:30am 26.1 28.8 23.4 85 1.8 SE 15 22 8 12 1010.6 1010.6 0.0
08/06:00am 26.2 28.1 23.5 85 1.8 SE 19 24 10 13 1010.5 1010.5 0.0
08/05:30am 26.2 28.8 23.3 84 2.0 SE 15 22 8 12 1010.5 1010.5 0.0
08/05:00am 25.8 29.2 23.3 86 1.7 SE 11 19 6 10 1010.3 1010.3 0.0
08/04:30am 25.8 29.0 23.1 85 1.8 SE 11 19 6 10 1010.2 1010.2 0.0
08/04:00am 25.8 28.3 23.1 85 1.8 SE 15 20 8 11 1010.1 1010.1 0.0
08/03:30am 25.8 28.7 23.1 85 1.8 SE 13 20 7 11 1010.0 1010.0 0.0
08/03:00am 25.9 27.9 23.0 84 2.0 SE 17 24 9 13 1010.1 1010.1 0.0
08/02:30am 26.0 27.6 22.9 83 2.1 SE 19 26 10 14 1010.2 1010.2 0.0
08/02:00am 25.9 27.6 23.0 84 2.0 SE 19 28 10 15 1010.3 1010.3 0.0
08/01:30am 26.0 27.7 23.1 84 2.0 SE 19 24 10 13 1010.4 1010.4 0.0
08/01:00am 26.0 28.2 23.3 85 1.8 SE 17 24 9 13 1010.6 1010.6 0.0
08/12:30am 26.0 27.7 23.1 84 2.0 SE 19 26 10 14 1010.9 1010.9 0.0
08/12:00am 26.1 27.2 23.0 83 2.1 SE 22 28 12 15 1011.1 1011.1 0.0
 
Date/Time
EST
Temp
°C
App
Temp
°C
Dew
Point
°C
Rel
Hum
%
Delta-T
°C
Wind Press
QNH
hPa
Press
MSL
hPa
Rain since
9am
mm
Dir  Spd
km/h
Gust
km/h
Spd
kts
Gust
kts
07/11:30pm 26.1 27.9 23.2 84 2.0 SE 19 26 10 14 1011.4 1011.4 0.0
07/11:00pm 26.2 28.4 23.3 84 2.0 SE 17 22 9 12 1011.8 1011.8 0.0
07/10:30pm 26.1 28.5 23.0 83 2.1 SE 15 22 8 12 1011.8 1011.8 0.0
07/10:00pm 26.3 27.9 22.8 81 2.4 SE 19 26 10 14 1011.8 1011.8 0.0
07/09:30pm 26.3 28.0 23.0 82 2.2 SE 19 26 10 14 1011.8 1011.8 0.0
07/09:00pm 26.4 28.0 22.9 81 2.4 SE 19 28 10 15 1011.7 1011.7 0.0
07/08:30pm 26.4 28.7 22.7 80 2.5 SE 15 20 8 11 1011.5 1011.5 0.0
07/08:00pm 26.6 28.5 22.7 79 2.6 SE 17 26 9 14 1010.8 1010.8 0.0
07/07:30pm 26.7 27.7 22.8 79 2.6 SE 22 30 12 16 1010.4 1010.4 0.0
07/07:00pm 26.8 27.7 22.6 78 2.8 ESE 22 32 12 17 1010.0 1010.0 0.0
07/06:30pm 26.9 28.1 22.5 77 3.0 ESE 20 30 11 16 1009.6 1009.6 0.0
07/06:00pm 27.4 28.7 22.6 75 3.3 ESE 20 28 11 15 1009.3 1009.3 0.0
07/05:30pm 28.1 29.5 22.8 73 3.6 ESE 20 26 11 14 1008.9 1008.9 0.0
07/05:00pm 28.5 28.8 22.3 69 4.2 ESE 24 33 13 18 1008.7 1008.7 0.0
07/04:30pm 28.7 29.0 22.2 68 4.4 ESE 24 33 13 18 1008.5 1008.5 0.0
07/04:00pm 28.7 29.1 23.1 71 3.8 ESE 26 35 14 19 1008.5 1008.5 0.0
07/03:30pm 29.4 30.0 23.4 70 4.1 ESE 26 35 14 19 1008.9 1008.9 0.0
07/03:00pm 29.7 30.4 23.6 69 4.2 ESE 26 33 14 18 1009.0 1009.0 0.0
07/02:30pm 29.4 30.1 23.6 71 4.0 ESE 26 35 14 19 1009.2 1009.2 0.0
07/02:00pm 30.0 30.6 23.4 67 4.5 ESE 26 35 14 19 1009.6 1009.6 0.0
07/01:30pm 30.3 31.4 23.7 68 4.6 ESE 24 35 13 19 1009.8 1009.8 0.0
07/01:00pm 29.2 29.5 23.6 72 3.9 ESE 28 35 15 19 1010.1 1010.1 0.0
07/12:30pm 29.6 29.7 23.3 69 4.3 ESE 28 37 15 20 1010.6 1010.6 0.0
07/12:00pm 29.3 29.4 23.3 70 4.1 ESE 28 35 15 19 1011.0 1011.0 0.0
07/11:30am 30.2 31.9 24.1 70 4.2 ESE 22 28 12 15 1011.3 1011.3 0.0
07/11:00am 29.1 29.9 23.1 70 4.1 ESE 24 32 13 17 1011.6 1011.6 0.0
07/10:30am 28.6 30.0 22.8 71 3.9 ESE 20 33 11 18 1011.8 1011.8 0.0
07/10:00am 28.4 29.8 23.5 75 3.4 ESE 22 32 12 17 1011.9 1011.9 0.0
07/09:30am 28.0 29.7 23.4 76 3.2 ESE 20 26 11 14 1011.9 1011.9 0.0
07/09:00am 28.0 30.0 23.6 77 3.0 SE 19 28 10 15 1011.7 1011.7 0.0
07/08:30am 27.4 29.7 23.4 79 2.7 SE 17 22 9 12 1011.5 1011.5 0.0
07/08:00am 26.5 29.3 23.6 84 2.0 SE 15 20 8 11 1011.1 1011.1 0.0
07/07:30am 25.7 28.7 23.4 87 1.6 SSE 13 19 7 10 1010.7 1010.7 0.0
07/07:00am 25.3 28.6 23.2 88 1.4 SE 11 17 6 9 1010.5 1010.5 0.0
07/06:30am 25.1 28.3 23.0 88 1.4 SSE 11 17 6 9 1010.2 1010.2 0.0
07/06:00am 25.3 27.6 22.8 86 1.7 SSE 15 20 8 11 1010.2 1010.2 0.0
07/05:30am 25.5 28.7 23.0 86 1.7 SSE 11 15 6 8 1010.2 1010.2 0.0
07/05:00am 25.7 27.9 22.6 83 2.1 SE 15 20 8 11 1010.1 1010.1 0.0
07/04:30am 25.8 27.2 22.5 82 2.2 SE 19 28 10 15 1009.9 1009.9 0.0
07/04:00am 25.9 27.7 22.6 82 2.2 SE 17 24 9 13 1009.7 1009.7 0.0
07/03:30am 26.0 27.2 22.5 81 2.4 SE 20 28 11 15 1009.8 1009.8 0.0
07/03:00am 26.0 27.1 22.3 80 2.5 ESE 20 28 11 15 1009.9 1009.9 0.0
07/02:30am 26.1 27.4 22.6 81 2.4 ESE 20 28 11 15 1010.1 1010.1 0.0
07/02:00am 25.9 27.7 22.6 82 2.2 SE 17 20 9 11 1010.4 1010.4 0.0
07/01:30am 26.0 28.0 22.9 83 2.1 SE 17 22 9 12 1010.6 1010.6 0.0
07/01:00am 26.1 27.4 22.6 81 2.4 ESE 20 26 11 14 1010.9 1010.9 0.0
07/12:30am 25.9 28.2 22.8 83 2.1 SE 15 20 8 11 1011.0 1011.0 0.0
07/12:00am 25.6 28.7 22.9 85 1.8 SE 11 17 6 9 1011.1 1011.1 0.0
 
Date/Time
EST
Temp
°C
App
Temp
°C
Dew
Point
°C
Rel
Hum
%
Delta-T
°C
Wind Press
QNH
hPa
Press
MSL
hPa
Rain since
9am
mm
Dir  Spd
km/h
Gust
km/h
Spd
kts
Gust
kts
06/11:30pm 25.7 29.0 23.2 86 1.7 SE 11 15 6 8 1011.3 1011.3 0.0
06/11:00pm 25.9 28.7 23.0 84 2.0 SE 13 19 7 10 1011.6 1011.6 0.0
06/10:30pm 26.0 28.7 22.9 83 2.1 SE 13 19 7 10 1011.6 1011.6 0.0
06/10:00pm 26.0 28.7 22.9 83 2.1 SE 13 19 7 10 1011.5 1011.5 0.0
06/09:30pm 25.9 29.2 23.2 85 1.8 SE 11 17 6 9 1011.5 1011.5 0.0

Other formats

Comma delimited format used in spreadsheet applications
http://www.bom.gov.au/fwo/IDQ60801/IDQ60801.94174.axf

JavaScript Object Notation format (JSON) in row-major order
http://www.bom.gov.au/fwo/IDQ60801/IDQ60801.94174.json

Data quality

Most of these data are generated automatically and are frequently updated. Quality checks on data are not normally performed. It is possible for incorrect values to appear. Refer to information at About Latest Weather Observations and please check the disclaimer before using these data.